• Join FlightAware (Why Join?)
  • Login
  • US Flag 
03:02AM EDT


 

Airport Tracker/Info


-or-


 

Live Flight TrackerFlight Track Log ✈ BAW2157 ✈ 08-May-2013 ✈ EGKK / LGW - TAPA / ANU

Flight Track Log - Related Links

Times and Time Zones

All times are in EDT time to prevent confusion due to time zone crossing. See the BAW2157 flight status page for this flight to view local times or setup timezone preferences in your user account.

Time Position Orientation Groundspeed Altitude Reporting Facility
EDT Latitude Longitude Course Direction KTS MPH feet Rate Location/Type
06:04AM 51.1430 -0.2260 256° West 161 185 1,600  Level FlightAware
06:04AM 51.1372 -0.2648 256° West 218 251 600 1,200 Descending FlightAware UK
06:04AM 51.1370 -0.2640 256° West 197 227 2,200 1,500 Climbing FlightAware
06:04AM 51.1317 -0.3023 256° West 244 281 1,200 1,200 Descending FlightAware UK
06:04AM 51.1320 -0.3040 256° West 231 266 2,700 1,740 Climbing FlightAware
06:05AM 51.1258 -0.3441 256° West 264 304 1,900 2,400 Descending FlightAware UK
06:05AM 51.1240 -0.3570 256° West 245 282 3,900 3,180 Climbing FlightAware
06:05AM 51.1183 -0.3972 256° West 270 311 3,500 2,760 Descending FlightAware UK
06:05AM 51.1170 -0.4080 256° West 249 287 5,300 4,200 Climbing FlightAware
06:06AM 51.1080 -0.4530 252° West 247 284 6,100 1,320 Climbing FlightAware
06:06AM 51.0990 -0.4840 245° Southwest 254 292 6,200 120 Climbing FlightAware
06:06AM 51.0879 -0.5174 242° Southwest 252 290 6,200  Level FlightAware ADS-B
06:07AM 51.0798 -0.5429 243° Southwest 252 290 6,200 180 Level FlightAware ADS-B
06:07AM 51.0717 -0.5685 243° Southwest 252 290 6,300 1,200 Climbing FlightAware ADS-B
06:07AM 51.0644 -0.5921 244° Southwest 252 290 6,800 2,340 Climbing FlightAware ADS-B
06:07AM 51.0605 -0.6065 247° West 254 292 7,200 2,580 Climbing FlightAware ADS-B
06:07AM 51.0573 -0.6205 250° West 255 293 7,500 1,800 Climbing FlightAware ADS-B
06:08AM 51.0555 -0.6302 254° West 256 295 7,600 1,200 Climbing FlightAware ADS-B
06:08AM 51.0542 -0.6383 256° West 258 297 7,700 1,200 Climbing FlightAware ADS-B
06:08AM 51.0504 -0.6667 258° West 261 300 8,000 600 Climbing FlightAware ADS-B
06:08AM 51.0465 -0.6947 258° West 261 300 8,000  Level FlightAware ADS-B
06:08AM 51.0427 -0.7226 258° West 259 298 8,000 360 Level FlightAware ADS-B
06:09AM 51.0387 -0.7520 258° West 261 300 8,200 1,500 Climbing FlightAware ADS-B
06:09AM 51.0356 -0.7744 258° West 261 300 8,700 2,520 Climbing FlightAware ADS-B
06:09AM 51.0314 -0.8043 257° West 262 302 9,400 -180 Climbing FlightAware ADS-B
06:09AM 51.0260 -0.8426 257° West 286 329 8,600 1,740 Descending FlightAware UK
06:10AM 51.0231 -0.8638 257° West 279 321 10,300 3,180 Climbing FlightAware ADS-B
06:10AM 51.0142 -0.9273 257° West 309 356 10,800 -780 Climbing FlightAware ADS-B
06:10AM 51.0081 -0.9710 257° West 346 398 9,700 1,740 Descending FlightAware UK
06:11AM 51.0044 -0.9987 257° West 325 374 11,700 2,400 Climbing FlightAware ADS-B
06:11AM 50.9992 -1.0411 257° West 354 407 10,900 2,460 Descending FlightAware UK
06:11AM 50.9964 -1.0722 257° West 331 381 13,000 2,400 Climbing FlightAware ADS-B
06:11AM 50.9921 -1.1130 257° West 358 412 12,100 2,160 Descending FlightAware UK
06:12AM 50.9889 -1.1444 257° West 337 388 14,100 4,140 Climbing FlightAware ADS-B
06:12AM 50.9810 -1.2178 260° West 341 392 15,100  Climbing FlightAware ADS-B
06:12AM 50.9762 -1.2594 260° West 370 426 14,100 1,980 Descending FlightAware UK
06:13AM 50.9726 -1.2926 260° West 347 399 16,100 4,140 Climbing FlightAware ADS-B
06:13AM 50.9644 -1.3682 260° West 352 405 17,100 1,740 Climbing FlightAware ADS-B
06:14AM 50.9559 -1.4457 260° West 359 413 17,900 -420 Climbing FlightAware ADS-B
06:14AM 50.9512 -1.4881 260° West 384 442 16,800 1,920 Descending FlightAware UK
06:14AM 50.9468 -1.5276 260° West 365 420 18,900 1,740 Climbing FlightAware ADS-B
06:15AM 50.9402 -1.5834 260° West 392 451 17,900 1,680 Descending FlightAware UK
06:15AM 50.9366 -1.6122 260° West 371 427 19,800 1,860 Climbing FlightAware ADS-B
06:15AM 50.9305 -1.6626 260° West 396 456 18,800 1,740 Descending FlightAware UK
06:15AM 50.9266 -1.6958 260° West 375 432 20,700 4,500 Climbing FlightAware ADS-B
06:16AM 50.9183 -1.7485 256° West 376 433 21,300 1,680 Climbing FlightAware ADS-B
06:16AM 50.8999 -1.8261 249° West 380 437 22,100 -240 Climbing FlightAware ADS-B
06:16AM 50.8868 -1.8822 249° West 410 472 21,100 1,560 Descending FlightAware UK
06:17AM 50.8818 -1.9054 249° West 384 442 22,900 3,960 Climbing FlightAware ADS-B
06:17AM 50.8642 -1.9862 251° West 390 449 23,700 -540 Climbing FlightAware ADS-B
06:17AM 50.8555 -2.0271 251° West 416 479 22,500 1,320 Descending FlightAware UK
06:18AM 50.8464 -2.0699 251° West 396 456 24,400 1,380 Climbing FlightAware ADS-B
06:18AM 50.8312 -2.1422 251° West 424 488 23,500 1,320 Descending FlightAware UK
06:18AM 50.8259 -2.1668 251° West 400 460 25,200 1,200 Climbing FlightAware ADS-B
06:18AM 50.8172 -2.2086 251° West 428 493 24,000 1,500 Descending FlightAware UK
06:19AM 50.8072 -2.2541 251° West 404 465 26,000 1,500 Climbing FlightAware ADS-B
06:19AM 50.7954 -2.3082 251° West 434 499 24,900 1,560 Descending FlightAware UK
06:20AM 50.7773 -2.3924 251° West 408 470 27,300 2,700 Climbing FlightAware ADS-B
06:20AM 50.7510 -2.5120 251° West 411 473 28,300  Climbing FlightAware
06:21AM 50.7355 -2.5966 251° West 446 513 27,300 -960 Descending FlightAware UK
06:21AM 50.7260 -2.6491 254° West 450 518 27,600 6,000 Climbing FlightAware UK
06:21AM 50.7280 -2.6350 254° West 417 480 29,100 1,320 Climbing FlightAware
06:21AM 50.7165 -2.7019 254° West 452 520 28,000 1,200 Descending FlightAware UK
06:22AM 50.7090 -2.7410 254° West 421 484 29,800 1,140 Climbing FlightAware
06:22AM 50.6970 -2.8077 254° West 460 529 28,700 -900 Descending FlightAware UK
06:22AM 50.6841 -2.8781 254° West 464 534 29,200 1,140 Climbing FlightAware UK
06:23AM 50.6742 -2.9317 254° West 464 534 29,500 3,600 Climbing FlightAware UK
06:23AM 50.6670 -2.9680 254° West 427 491 31,200 780 Climbing FlightAware
06:23AM 50.6576 -3.0211 254° West 466 536 29,900 1,020 Descending FlightAware UK
06:23AM 50.6499 -3.0616 254° West 429 494 31,700 780 Climbing FlightAware ADS-B
06:24AM 50.6372 -3.1306 254° West 472 543 30,400 960 Descending FlightAware UK
06:24AM 50.6287 -3.1756 254° West 440 506 32,300 1,200 Climbing FlightAware ADS-B
06:24AM 50.6201 -3.2224 254° West 478 550 31,000 -1,680 Descending FlightAware UK
06:25AM 50.6096 -3.2776 253° West 482 555 31,400 1,320 Climbing FlightAware UK
06:25AM 50.5992 -3.3327 253° West 484 557 31,800 4,020 Climbing FlightAware UK
06:25AM 50.5940 -3.3610 253° West 437 503 33,500 1,200 Climbing FlightAware
06:25AM 50.5819 -3.4234 253° West 492 566 32,400 1,500 Descending FlightAware UK
06:26AM 50.5700 -3.4870 253° West 433 498 34,500 1,080 Climbing FlightAware
06:26AM 50.5475 -3.6031 253° West 486 559 33,500 720 Descending FlightAware UK
06:26AM 50.5480 -3.6030 253° West 435 501 35,000 3,960 Climbing FlightAware
06:27AM 50.5305 -3.6921 253° West 435 501 35,500 -1,200 Climbing FlightAware ADS-B
06:27AM 50.5200 -3.7478 253° West 486 559 34,100 -1,620 Descending FlightAware UK
06:28AM 50.5059 -3.8203 253° West 486 559 34,400 2,820 Climbing FlightAware UK
06:28AM 50.4980 -3.8620 253° West 440 506 36,000 1,560 Climbing FlightAware
06:29AM 50.4720 -3.9960 253° West 438 504 36,000 -1,380 Level FlightAware
06:29AM 50.4560 -4.0753 253° West 490 564 34,500  Descending FlightAware UK
06:29AM 50.4470 -4.1190 253° West 437 503 36,000  Climbing FlightAware
06:30AM 50.4237 -4.2386 253° West 490 564 34,500  Descending FlightAware UK
06:30AM 50.4200 -4.2580 253° West 439 505 36,000  Climbing FlightAware
06:30AM 50.4093 -4.3113 253° West 486 559 34,500  Descending FlightAware UK
06:31AM 50.3960 -4.3770 253° West 443 510 36,000  Climbing FlightAware
06:31AM 50.3839 -4.4391 253° West 494 568 34,500 -2,580 Descending FlightAware UK
06:31AM 50.3731 -4.4934 253° West 498 573 34,500 3,300 Level FlightAware UK
06:31AM 50.3680 -4.5180 253° West 439 505 36,000  Climbing FlightAware
06:32AM 50.3472 -4.6206 253° West 492 566 34,500  Descending FlightAware UK
06:32AM 50.3440 -4.6380 253° West 435 501 36,000  Climbing FlightAware
06:32AM 50.3326 -4.6923 253° West 490 564 34,500  Descending FlightAware UK
06:33AM 50.3190 -4.7570 253° West 435 501 36,000  Climbing FlightAware
06:33AM 50.3072 -4.8168 253° West 488 562 34,500  Descending FlightAware UK
06:33AM 50.2920 -4.8900 253° West 436 502 36,000  Climbing FlightAware
06:34AM 50.2743 -4.9785 253° West 486 559 34,500  Descending FlightAware UK
06:34AM 50.2680 -5.0070 253° West 442 509 36,000  Climbing FlightAware
06:35AM 50.2520 -5.0877 253° West 492 566 34,500  Descending FlightAware UK
06:35AM 50.2430 -5.1310 253° West 444 511 36,000  Climbing FlightAware
06:35AM 50.2289 -5.1979 253° West 494 568 34,500 -2,460 Descending FlightAware UK
06:35AM 50.2174 -5.2524 252° West 492 566 34,500 3,420 Level FlightAware UK
06:36AM 50.2130 -5.2710 252° West 442 509 36,000  Climbing FlightAware
06:36AM 50.2021 -5.3249 252° West 492 566 34,500 -2,700 Descending FlightAware UK
06:36AM 50.1907 -5.3794 252° West 492 566 34,500 3,720 Level FlightAware UK
06:36AM 50.1880 -5.3900 252° West 443 510 36,000  Climbing FlightAware
06:37AM 50.1754 -5.4521 252° West 492 566 34,500 -2,520 Descending FlightAware UK
06:37AM 50.1639 -5.5066 252° West 494 568 34,500 3,300 Level FlightAware UK
06:37AM 50.1600 -5.5240 252° West 444 511 36,000  Climbing FlightAware
06:37AM 50.1487 -5.5795 252° West 494 568 34,500 -2,760 Descending FlightAware UK
06:38AM 50.1394 -5.6353 255° West 494 568 34,500 3,600 Level FlightAware UK
06:38AM 50.1380 -5.6490 255° West 446 513 36,000  Climbing FlightAware
06:38AM 50.1322 -5.7116 255° West 488 562 34,500 -2,580 Descending FlightAware UK
06:38AM 50.1290 -5.7698 265° West 494 568 34,500 3,900 Level FlightAware UK
06:38AM 50.1290 -5.7760 265° West 451 519 36,000  Climbing FlightAware
06:39AM 50.1253 -5.8471 265° West 494 568 34,500 -2,460 Descending FlightAware UK
06:39AM 50.1228 -5.9052 266° West 494 568 34,500 3,420 Level FlightAware UK
06:39AM 50.1220 -5.9240 266° West 449 517 36,000  Climbing FlightAware
06:39AM 50.1194 -5.9817 266° West 498 573 34,500 -2,700 Descending FlightAware UK
06:40AM 50.1167 -6.0395 266° West 496 571 34,500 3,720 Level FlightAware UK
06:40AM 50.1160 -6.0540 266° West 446 513 36,000  Climbing FlightAware
06:40AM 50.1129 -6.1163 266° West 498 573 34,500 -2,520 Descending FlightAware UK
06:40AM 50.1098 -6.1737 265° West 496 571 34,500 3,300 Level FlightAware UK
06:40AM 50.1090 -6.1930 265° West 442 509 36,000  Climbing FlightAware
06:41AM 50.1055 -6.2496 265° West 494 568 34,500 -2,760 Descending FlightAware UK
06:41AM 50.1024 -6.3062 265° West 496 571 34,500 3,600 Level FlightAware UK
06:41AM 50.1020 -6.3200 265° West 439 505 36,000  Climbing FlightAware
06:41AM 50.0984 -6.3815 265° West 496 571 34,500 -2,580 Descending FlightAware UK
06:42AM 50.0954 -6.4378 265° West 490 564 34,500 3,180 Level FlightAware UK
06:42AM 50.0940 -6.4630 265° West 436 502 36,000  Climbing FlightAware
06:42AM 50.0903 -6.5314 265° West 490 564 34,500  Descending FlightAware UK
06:43AM 50.0870 -6.5890 265° West 439 505 36,000  Climbing FlightAware
06:43AM 50.0842 -6.6440 265° West 492 566 34,500 -2,700 Descending FlightAware UK
06:43AM 50.0811 -6.7005 265° West 490 564 34,500 3,720 Level FlightAware UK
06:43AM 50.0800 -6.7150 265° West 441 507 36,000  Climbing FlightAware
06:44AM 50.0816 -6.7770 265° West 490 564 34,500 -2,520 Descending FlightAware UK
06:44AM 50.0838 -6.8351 273° West 492 566 34,500 3,300 Level FlightAware UK
06:44AM 50.0850 -6.8580 273° West 449 517 36,000  Climbing FlightAware
06:44AM 50.0869 -6.9123 273° West 490 564 34,500 -2,760 Descending FlightAware UK
06:45AM 50.0889 -6.9705 273° West 492 566 34,500 3,600 Level FlightAware UK
06:45AM 50.0890 -6.9870 273° West 451 519 36,000  Climbing FlightAware
06:45AM 50.0908 -7.0474 273° West 490 564 34,500 -2,580 Descending FlightAware UK
06:45AM 50.0919 -7.1057 272° West 492 566 34,500 3,180 Level FlightAware UK
06:45AM 50.0920 -7.1340 272° West 453 521 36,000  Climbing FlightAware
06:46AM 50.0934 -7.2031 272° West 492 566 34,500  Descending FlightAware UK
06:46AM 50.0940 -7.2630 272° West 455 524 36,000  Climbing FlightAware
06:47AM 50.0953 -7.3597 272° West 494 568 34,500  Descending FlightAware UK
06:47AM 50.0960 -7.3930 272° West 454 522 36,000  Climbing FlightAware
06:47AM 50.0965 -7.4576 272° West 494 568 34,500 -2,520 Descending FlightAware UK
06:47AM 50.0971 -7.5163 271° West 496 571 34,500 3,300 Level FlightAware UK
06:47AM 50.0970 -7.5380 271° West 453 521 36,000  Climbing FlightAware
06:48AM 50.0982 -7.5945 271° West 496 571 34,500 -2,760 Descending FlightAware UK
06:48AM 50.0990 -7.6530 271° West 498 573 34,500 3,600 Level FlightAware UK
06:48AM 50.0990 -7.6690 271° West 452 520 36,000  Climbing FlightAware
06:48AM 50.1001 -7.7309 271° West 496 571 34,500 -2,580 Descending FlightAware UK
06:49AM 50.1007 -7.7892 271° West 496 571 34,500 3,180 Level FlightAware UK
06:49AM 50.1010 -7.8150 271° West 448 516 36,000  Climbing FlightAware
06:49AM 50.1017 -7.8858 271° West 490 564 34,500  Descending FlightAware UK
06:50AM 50.1030 -7.9460 271° West 449 517 36,000  Climbing FlightAware
06:50AM 50.1030 -8.0015 271° West 492 566 34,500 -2,700 Descending FlightAware UK
06:50AM 50.1037 -8.0594 271° West 498 573 34,500 3,720 Level FlightAware UK
06:50AM 50.1040 -8.0740 271° West 451 519 36,000  Climbing FlightAware
06:51AM 50.1049 -8.1368 271° West 498 573 34,500 -2,520 Descending FlightAware UK
06:51AM 50.1060 -8.1943 272° West 496 571 34,500 3,300 Level FlightAware UK
06:51AM 50.1060 -8.2170 272° West 448 516 36,000  Climbing FlightAware
06:51AM 50.1072 -8.2716 272° West 496 571 34,500 -2,760 Descending FlightAware UK
06:52AM 50.1078 -8.3295 271° West 492 566 34,500 3,600 Level FlightAware UK
06:52AM 50.1080 -8.3450 271° West 448 516 36,000  Climbing FlightAware
06:52AM 50.1088 -8.4066 271° West 494 568 34,500 -2,580 Descending FlightAware UK
06:52AM 50.1094 -8.4645 271° West 494 568 34,500 3,180 Level FlightAware UK
06:52AM 50.1100 -8.4890 271° West 449 517 36,000  Climbing FlightAware
06:53AM 50.1105 -8.5610 271° West 494 568 34,500 -2,400 Descending FlightAware UK
06:53AM 50.1111 -8.6191 271° West 494 568 34,500  Level FlightAware UK
06:53AM 50.1117 -8.6773 271° West 498 573 34,500 2,760 Level FlightAware UK
06:54AM 50.1120 -8.7120 271° West 451 519 36,000  Climbing FlightAware
06:54AM 50.1128 -8.7744 271° West 496 571 34,500 -2,700 Descending FlightAware UK
06:54AM 50.1132 -8.8327 271° West 496 571 34,500 3,720 Level FlightAware UK
06:54AM 50.1120 -8.8290 271° West 450 518 36,000  Climbing FlightAware
06:55AM 50.1137 -8.9103 271° West 496 571 34,500 -2,520 Descending FlightAware UK
06:55AM 50.1140 -8.9685 271° West 496 571 34,500 4,080 Level FlightAware UK
06:55AM 50.1120 -8.9390 271° West 450 518 36,000 2,040 Climbing FlightAware
06:56AM 50.1120 -9.0500 270° West 450 518 36,000  Level FlightAware
06:56AM 50.1160 -9.2340 272° West 449 517 36,000  Level FlightAware
06:57AM 50.1160 -9.3730 270° West 449 517 36,000  Level FlightAware
06:58AM 50.1170 -9.5240 271° West 450 518 36,000  Level FlightAware
06:58AM 50.1170 -9.6550 270° West 450 518 36,000  Level FlightAware
06:59AM 50.1170 -9.7930 270° West 451 519 36,000  Level FlightAware
07:00AM 50.1170 -9.9500 270° West 451 519 36,000  Level FlightAware
07:01AM 50.1170 -10.1070 270° West 450 518 36,000  Level FlightAware
07:01AM 50.1160 -10.2260 269° West 450 518 36,000  Level FlightAware
07:02AM 50.1160 -10.3620 270° West 453 521 36,000  Level FlightAware
07:03AM 50.1140 -10.4800 269° West 453 521 36,000  Level FlightAware
07:03AM 50.1140 -10.6250 270° West 456 525 36,000  Level FlightAware
07:04AM 50.1130 -10.7530 269° West 456 525 36,000  Level FlightAware
07:05AM 50.1110 -10.8650 268° West 456 525 36,000  Level FlightAware
07:06AM 50.1100 -11.0050 269° West 456 525 36,000  Level FlightAware
07:07AM 50.1070 -11.2290 269° West 444 511 36,000  Level FlightAware
07:07AM 50.1050 -11.3380 268° West 444 511 36,000  Level FlightAware
07:08AM 50.1030 -11.4470 268° West 444 511 36,000  Level FlightAware
07:09AM 50.1000 -11.5560 268° West 444 511 36,000  Level FlightAware
07:09AM 50.0970 -11.6920 268° West 444 511 36,000  Level FlightAware
07:10AM 50.0950 -11.8010 268° West 444 511 36,000  Level FlightAware
07:11AM 50.0920 -11.9100 268° West 444 511 36,000  Level FlightAware
07:11AM 50.0900 -12.0180 268° West 444 511 36,000  Level FlightAware
07:12AM 50.0870 -12.1270 268° West 444 511 36,000  Level FlightAware
07:13AM 50.0840 -12.2630 268° West 444 511 36,000  Level FlightAware
07:14AM 50.0820 -12.3720 268° West 444 511 36,000  Level FlightAware
07:14AM 50.0790 -12.4810 268° West 444 511 36,000  Level FlightAware
07:15AM 50.0770 -12.5890 268° West 444 511 36,000  Level FlightAware
07:16AM 50.0740 -12.6980 268° West 444 511 36,000  Level FlightAware
07:18AM 49.9850 -13.0398 248° West  Level Estimated
07:19AM 49.9394 -13.2131 248° West  Level Estimated
07:20AM 49.8935 -13.3861 248° West  Level Estimated
07:21AM 49.8474 -13.5587 248° West  Level Estimated
07:22AM 49.8010 -13.7310 247° West  Level Estimated
07:23AM 49.7543 -13.9030 247° West  Level Estimated
07:24AM 49.7074 -14.0747 247° West  Level Estimated
07:25AM 49.6603 -14.2460 247° West  Level Estimated
07:26AM 49.6128 -14.4170 247° West  Level Estimated
07:27AM 49.5652 -14.5877 247° West  Level Estimated
07:28AM 49.5173 -14.7580 247° West  Level Estimated
07:29AM 49.4691 -14.9280 246° West  Level Estimated
07:30AM 49.4207 -15.0976 246° West  Level Estimated
07:31AM 49.3720 -15.2669 246° West  Level Estimated
07:32AM 49.3231 -15.4359 246° West  Level Estimated
07:33AM 49.2740 -15.6046 246° West  Level Estimated
07:34AM 49.2246 -15.7729 246° West  Level Estimated
07:35AM 49.1749 -15.9409 246° West  Level Estimated
07:36AM 49.1251 -16.1085 246° West  Level Estimated
07:37AM 49.0749 -16.2758 245° Southwest  Level Estimated
07:38AM 49.0246 -16.4428 245° Southwest  Level Estimated
07:39AM 48.9739 -16.6094 245° Southwest  Level Estimated
07:40AM 48.9231 -16.7757 245° Southwest  Level Estimated
07:41AM 48.8720 -16.9416 245° Southwest  Level Estimated
07:42AM 48.8207 -17.1072 245° Southwest  Level Estimated
07:43AM 48.7691 -17.2724 245° Southwest  Level Estimated
07:44AM 48.7173 -17.4374 245° Southwest  Level Estimated
07:45AM 48.6653 -17.6020 244° Southwest  Level Estimated
07:46AM 48.6130 -17.7662 244° Southwest  Level Estimated
07:47AM 48.5605 -17.9301 244° Southwest  Level Estimated
07:48AM 48.5078 -18.0937 244° Southwest  Level Estimated
07:49AM 48.4548 -18.2569 244° Southwest  Level Estimated
07:50AM 48.4017 -18.4198 244° Southwest  Level Estimated
07:51AM 48.3482 -18.5823 244° Southwest  Level Estimated
07:52AM 48.2946 -18.7445 244° Southwest  Level Estimated
07:53AM 48.2407 -18.9064 243° Southwest  Level Estimated
07:54AM 48.1866 -19.0679 243° Southwest  Level Estimated
07:54AM 49.0000 -20.0000 243° Southwest 466 536 38,000  Level ETMS Enhanced Traffic Management System
07:55AM 48.1323 -19.2291 243° Southwest  Level Estimated
07:56AM 48.0777 -19.3899 243° Southwest  Level Estimated
07:57AM 48.0229 -19.5504 243° Southwest  Level Estimated
07:58AM 47.9679 -19.7105 243° Southwest  Level Estimated
07:59AM 47.9127 -19.8703 243° Southwest  Level Estimated
08:00AM 48.5869 -21.2244 242° Southwest 466 536 38,000  Level FlightAware Transoceanic
08:01AM 48.5268 -21.3976 242° Southwest 466 536 38,000  Level FlightAware Transoceanic
08:02AM 48.4665 -21.5705 242° Southwest 466 536 38,000  Level FlightAware Transoceanic
08:03AM 48.4059 -21.7430 242° Southwest 466 536 38,000  Level FlightAware Transoceanic
08:04AM 48.3450 -21.9150 242° Southwest 466 536 38,000  Level FlightAware Transoceanic
08:05AM 48.2839 -22.0866 242° Southwest 466 536 38,000  Level FlightAware Transoceanic
08:06AM 48.2226 -22.2578 242° Southwest 466 536 38,000  Level FlightAware Transoceanic
08:07AM 48.1609 -22.4286 242° Southwest 466 536 38,000  Level FlightAware Transoceanic
08:08AM 48.0991 -22.5990 241° Southwest 466 536 38,000  Level FlightAware Transoceanic
08:09AM 48.0370 -22.7690 241° Southwest 466 536 38,000  Level FlightAware Transoceanic
08:10AM 47.9746 -22.9385 241° Southwest 466 536 38,000  Level FlightAware Transoceanic
08:11AM 47.9120 -23.1077 241° Southwest 466 536 38,000  Level FlightAware Transoceanic
08:12AM 47.8491 -23.2764 241° Southwest 466 536 38,000  Level FlightAware Transoceanic
08:13AM 47.7860 -23.4448 241° Southwest 466 536 38,000  Level FlightAware Transoceanic
08:14AM 47.7227 -23.6127 241° Southwest 466 536 38,000  Level FlightAware Transoceanic
08:15AM 47.6591 -23.7802 241° Southwest 466 536 38,000  Level FlightAware Transoceanic
08:16AM 47.5952 -23.9473 240° Southwest 466 536 38,000  Level FlightAware Transoceanic
08:17AM 47.5312 -24.1140 240° Southwest 466 536 38,000  Level FlightAware Transoceanic
08:18AM 47.4668 -24.2803 240° Southwest 466 536 38,000  Level FlightAware Transoceanic
08:19AM 47.4023 -24.4462 240° Southwest 466 536 38,000  Level FlightAware Transoceanic
08:20AM 47.3375 -24.6117 240° Southwest 466 536 38,000  Level FlightAware Transoceanic
08:21AM 47.2724 -24.7768 240° Southwest 466 536 38,000  Level FlightAware Transoceanic
08:22AM 47.2071 -24.9415 240° Southwest 466 536 38,000  Level FlightAware Transoceanic
08:23AM 47.1416 -25.1057 240° Southwest 466 536 38,000  Level FlightAware Transoceanic
08:24AM 47.0759 -25.2696 239° Southwest 466 536 38,000  Level FlightAware Transoceanic
08:25AM 47.0099 -25.4331 239° Southwest 466 536 38,000  Level FlightAware Transoceanic
08:26AM 46.9437 -25.5961 239° Southwest 466 536 38,000  Level FlightAware Transoceanic
08:27AM 46.8773 -25.7588 239° Southwest 466 536 38,000  Level FlightAware Transoceanic
08:28AM 46.8106 -25.9210 239° Southwest 466 536 38,000  Level FlightAware Transoceanic
08:29AM 46.7437 -26.0828 239° Southwest 466 536 38,000  Level FlightAware Transoceanic
08:30AM 46.6766 -26.2443 239° Southwest 466 536 38,000  Level FlightAware Transoceanic
08:31AM 46.6092 -26.4053 239° Southwest 466 536 38,000  Level FlightAware Transoceanic
08:32AM 46.5416 -26.5660 238° Southwest 466 536 38,000  Level FlightAware Transoceanic
08:33AM 46.4738 -26.7262 238° Southwest 466 536 38,000  Level FlightAware Transoceanic
08:34AM 46.4058 -26.8860 238° Southwest 466 536 38,000  Level FlightAware Transoceanic
08:35AM 46.3375 -27.0455 238° Southwest 466 536 38,000  Level FlightAware Transoceanic
08:36AM 46.2691 -27.2045 238° Southwest 466 536 38,000  Level FlightAware Transoceanic
08:37AM 46.2004 -27.3632 238° Southwest 466 536 38,000  Level FlightAware Transoceanic
08:38AM 46.1315 -27.5214 238° Southwest 466 536 38,000  Level FlightAware Transoceanic
08:39AM 46.0623 -27.6793 238° Southwest 466 536 38,000  Level FlightAware Transoceanic
08:40AM 45.9930 -27.8367 238° Southwest 466 536 38,000  Level FlightAware Transoceanic
08:41AM 45.9234 -27.9938 237° Southwest 466 536 38,000  Level FlightAware Transoceanic
08:42AM 45.8536 -28.1504 237° Southwest 466 536 38,000  Level FlightAware Transoceanic
08:43AM 45.7837 -28.3067 237° Southwest 466 536 38,000  Level FlightAware Transoceanic
08:44AM 45.7135 -28.4626 237° Southwest 466 536 38,000  Level FlightAware Transoceanic
08:45AM 45.6431 -28.6181 237° Southwest 466 536 38,000  Level FlightAware Transoceanic
08:46AM 45.5724 -28.7732 237° Southwest 466 536 38,000  Level FlightAware Transoceanic
08:47AM 45.5016 -28.9279 237° Southwest 466 536 38,000  Level FlightAware Transoceanic
08:48AM 45.4306 -29.0822 237° Southwest 466 536 38,000  Level FlightAware Transoceanic
08:49AM 45.3593 -29.2361 237° Southwest 466 536 38,000  Level FlightAware Transoceanic
08:50AM 45.2879 -29.3897 236° Southwest 466 536 38,000  Level FlightAware Transoceanic
08:51AM 45.2162 -29.5428 236° Southwest 466 536 38,000  Level FlightAware Transoceanic
08:52AM 45.1443 -29.6956 236° Southwest 466 536 38,000  Level FlightAware Transoceanic
08:53AM 45.0723 -29.8480 236° Southwest 466 536 38,000  Level FlightAware Transoceanic
08:54AM 45.0050 -29.9894 236° Southwest  Level FlightAware Approximate
08:55AM 44.9376 -30.1306 236° Southwest  Level FlightAware Approximate
08:56AM 44.9404 -30.1178 234° Southwest  Level FlightAware Approximate
08:57AM 44.8702 -30.2560 234° Southwest  Level FlightAware Approximate
08:58AM 44.7998 -30.3938 234° Southwest  Level FlightAware Approximate
08:59AM 44.7292 -30.5313 234° Southwest  Level FlightAware Approximate
09:00AM 44.6585 -30.6685 234° Southwest  Level FlightAware Approximate
09:01AM 44.5876 -30.8054 234° Southwest  Level FlightAware Approximate
09:02AM 44.5166 -30.9419 234° Southwest  Level FlightAware Approximate
09:03AM 44.4454 -31.0781 234° Southwest  Level FlightAware Approximate
09:04AM 44.3740 -31.2139 234° Southwest  Level FlightAware Approximate
09:05AM 44.3024 -31.3494 234° Southwest  Level FlightAware Approximate
09:06AM 44.2308 -31.4846 234° Southwest  Level FlightAware Approximate
09:07AM 44.1589 -31.6194 233° Southwest  Level FlightAware Approximate
09:08AM 44.0869 -31.7540 233° Southwest  Level FlightAware Approximate
09:09AM 44.0147 -31.8882 233° Southwest  Level FlightAware Approximate
09:10AM 43.9424 -32.0220 233° Southwest  Level FlightAware Approximate
09:11AM 43.8699 -32.1556 233° Southwest  Level FlightAware Approximate
09:12AM 43.7973 -32.2888 233° Southwest  Level FlightAware Approximate
09:13AM 43.7245 -32.4217 233° Southwest  Level FlightAware Approximate
09:14AM 43.6516 -32.5543 233° Southwest  Level FlightAware Approximate
09:15AM 43.5785 -32.6865 233° Southwest  Level FlightAware Approximate
09:16AM 43.5052 -32.8185 233° Southwest  Level FlightAware Approximate
09:17AM 43.4318 -32.9501 233° Southwest  Level FlightAware Approximate
09:18AM 43.3583 -33.0814 232° Southwest  Level FlightAware Approximate
09:19AM 43.2846 -33.2123 232° Southwest  Level FlightAware Approximate
09:20AM 43.2107 -33.3430 232° Southwest  Level FlightAware Approximate
09:21AM 43.1367 -33.4733 232° Southwest  Level FlightAware Approximate
09:22AM 43.0626 -33.6034 232° Southwest  Level FlightAware Approximate
09:23AM 42.9883 -33.7331 232° Southwest  Level FlightAware Approximate
09:24AM 42.9138 -33.8625 232° Southwest  Level FlightAware Approximate
09:25AM 42.8393 -33.9915 232° Southwest  Level FlightAware Approximate
09:26AM 42.7645 -34.1203 232° Southwest  Level FlightAware Approximate
09:27AM 42.6897 -34.2488 232° Southwest  Level FlightAware Approximate
09:28AM 42.6147 -34.3769 232° Southwest  Level FlightAware Approximate
09:29AM 42.5395 -34.5048 231° Southwest  Level FlightAware Approximate
09:30AM 42.4642 -34.6323 231° Southwest  Level FlightAware Approximate
09:31AM 42.3888 -34.7595 231° Southwest  Level FlightAware Approximate
09:32AM 42.3132 -34.8865 231° Southwest  Level FlightAware Approximate
09:33AM 42.2375 -35.0131 231° Southwest  Level FlightAware Approximate
09:34AM 42.1616 -35.1394 231° Southwest  Level FlightAware Approximate
09:35AM 42.0856 -35.2654 231° Southwest  Level FlightAware Approximate
09:36AM 42.0095 -35.3911 231° Southwest  Level FlightAware Approximate
09:37AM 41.9332 -35.5165 231° Southwest  Level FlightAware Approximate
09:38AM 41.8568 -35.6416 231° Southwest  Level FlightAware Approximate
09:39AM 41.7803 -35.7664 231° Southwest  Level FlightAware Approximate
09:40AM 41.7036 -35.8909 231° Southwest  Level FlightAware Approximate
09:41AM 41.6268 -36.0152 230° Southwest  Level FlightAware Approximate
09:42AM 41.5498 -36.1391 230° Southwest  Level FlightAware Approximate
09:43AM 41.4727 -36.2627 230° Southwest  Level FlightAware Approximate
09:44AM 41.3955 -36.3861 230° Southwest  Level FlightAware Approximate
09:45AM 41.3182 -36.5091 230° Southwest  Level FlightAware Approximate
09:46AM 41.2407 -36.6318 230° Southwest  Level FlightAware Approximate
09:47AM 41.1631 -36.7543 230° Southwest  Level FlightAware Approximate
09:48AM 41.0854 -36.8765 230° Southwest  Level FlightAware Approximate
09:49AM 41.0075 -36.9983 230° Southwest  Level FlightAware Approximate
09:50AM 40.9295 -37.1199 230° Southwest  Level FlightAware Approximate
09:51AM 40.8514 -37.2412 230° Southwest  Level FlightAware Approximate
09:52AM 40.7732 -37.3623 230° Southwest  Level FlightAware Approximate
09:53AM 40.6948 -37.4830 229° Southwest  Level FlightAware Approximate
09:54AM 40.6163 -37.6034 229° Southwest  Level FlightAware Approximate
09:55AM 40.5377 -37.7236 229° Southwest  Level FlightAware Approximate
09:56AM 40.4590 -37.8435 229° Southwest  Level FlightAware Approximate
09:57AM 40.3801 -37.9631 229° Southwest  Level FlightAware Approximate
09:58AM 40.3011 -38.0824 229° Southwest  Level FlightAware Approximate
09:59AM 40.2220 -38.2014 229° Southwest  Level FlightAware Approximate
10:00AM 40.1428 -38.3202 229° Southwest  Level FlightAware Approximate
10:01AM 40.0634 -38.4387 229° Southwest  Level FlightAware Approximate
10:02AM 39.9840 -38.5569 229° Southwest  Level FlightAware Approximate
10:03AM 39.9044 -38.6749 229° Southwest  Level FlightAware Approximate
10:04AM 39.8246 -38.7925 229° Southwest  Level FlightAware Approximate
10:05AM 39.7448 -38.9099 229° Southwest  Level FlightAware Approximate
10:05AM 39.0000 -40.0000 232° Southwest 477 549 38,000  Level New York Oceanic (ODAPS)
10:06AM 39.6650 -39.0272 229° Southwest  Level FlightAware Approximate
10:07AM 39.5857 -39.1449 229° Southwest  Level FlightAware Approximate
10:08AM 39.5062 -39.2623 229° Southwest  Level FlightAware Approximate
10:09AM 39.4266 -39.3795 229° Southwest  Level FlightAware Approximate
10:10AM 39.3469 -39.4963 229° Southwest  Level FlightAware Approximate
10:11AM 39.2671 -39.6129 229° Southwest  Level FlightAware Approximate
10:12AM 38.5116 -40.8034 232° Southwest 477 549 38,000  Level FlightAware Transoceanic
10:13AM 38.4296 -40.9363 232° Southwest 477 549 38,000  Level FlightAware Transoceanic
10:14AM 38.3476 -41.0688 232° Southwest 477 549 38,000  Level FlightAware Transoceanic
10:15AM 38.2653 -41.2010 232° Southwest 477 549 38,000  Level FlightAware Transoceanic
10:16AM 38.1830 -41.3330 231° Southwest 477 549 38,000  Level FlightAware Transoceanic
10:17AM 38.1004 -41.4646 231° Southwest 477 549 38,000  Level FlightAware Transoceanic
10:18AM 38.0178 -41.5960 231° Southwest 477 549 38,000  Level FlightAware Transoceanic
10:18AM 37.9333 -41.7167 231° Southwest 468 539 38,000  Level New York Oceanic (ODAPS)
10:19AM 37.9349 -41.7270 231° Southwest 477 549 38,000  Level FlightAware Transoceanic
10:20AM 37.8520 -41.8578 231° Southwest 477 549 38,000  Level FlightAware Transoceanic
10:21AM 37.7689 -41.9882 231° Southwest 477 549 38,000  Level FlightAware Transoceanic
10:22AM 37.6856 -42.1184 231° Southwest 477 549 38,000  Level FlightAware Transoceanic
10:23AM 37.6022 -42.2482 231° Southwest 477 549 38,000  Level FlightAware Transoceanic
10:24AM 37.5187 -42.3778 231° Southwest 477 549 38,000  Level FlightAware Transoceanic
10:25AM 37.4409 -42.4865 231° Southwest 468 539 38,000  Level FlightAware Transoceanic
10:26AM 37.3583 -42.6138 231° Southwest 468 539 38,000  Level FlightAware Transoceanic
10:27AM 37.2756 -42.7408 231° Southwest 468 539 38,000  Level FlightAware Transoceanic
10:28AM 37.1928 -42.8676 231° Southwest 468 539 38,000  Level FlightAware Transoceanic
10:29AM 37.1098 -42.9941 231° Southwest 468 539 38,000  Level FlightAware Transoceanic
10:30AM 37.0267 -43.1203 230° Southwest 468 539 38,000  Level FlightAware Transoceanic
10:31AM 36.9435 -43.2462 230° Southwest 468 539 38,000  Level FlightAware Transoceanic
10:32AM 36.8601 -43.3719 230° Southwest 468 539 38,000  Level FlightAware Transoceanic
10:33AM 36.7766 -43.4972 230° Southwest 468 539 38,000  Level FlightAware Transoceanic
10:34AM 36.6930 -43.6223 230° Southwest 468 539 38,000  Level FlightAware Transoceanic
10:35AM 36.6092 -43.7472 230° Southwest 468 539 38,000  Level FlightAware Transoceanic
10:36AM 36.5254 -43.8717 230° Southwest 468 539 38,000  Level FlightAware Transoceanic
10:37AM 36.4413 -43.9960 230° Southwest 468 539 38,000  Level FlightAware Transoceanic
10:38AM 36.3572 -44.1200 230° Southwest 468 539 38,000  Level FlightAware Transoceanic
10:39AM 36.2729 -44.2438 230° Southwest 468 539 38,000  Level FlightAware Transoceanic
10:39AM 36.2667 -44.2667 230° Southwest 468 539 38,000  Level New York Oceanic (ODAPS)
10:40AM 36.1885 -44.3673 230° Southwest 468 539 38,000  Level FlightAware Transoceanic
10:41AM 36.1040 -44.4905 230° Southwest 468 539 38,000  Level FlightAware Transoceanic
10:42AM 36.0193 -44.6134 230° Southwest 468 539 38,000  Level FlightAware Transoceanic
10:43AM 35.9346 -44.7361 229° Southwest 468 539 38,000  Level FlightAware Transoceanic
10:44AM 35.8497 -44.8586 229° Southwest 468 539 38,000  Level FlightAware Transoceanic
10:45AM 35.7590 -45.0006 229° Southwest 468 539 38,000  Level FlightAware Transoceanic
10:46AM 35.6740 -45.1220 229° Southwest 468 539 38,000  Level FlightAware Transoceanic
10:47AM 35.5888 -45.2432 229° Southwest 468 539 38,000  Level FlightAware Transoceanic
10:48AM 35.5035 -45.3641 229° Southwest 468 539 38,000  Level FlightAware Transoceanic
10:49AM 35.4181 -45.4847 229° Southwest 468 539 38,000  Level FlightAware Transoceanic
10:50AM 35.3326 -45.6051 229° Southwest 468 539 38,000  Level FlightAware Transoceanic
10:51AM 35.2470 -45.7253 229° Southwest 468 539 38,000  Level FlightAware Transoceanic
10:52AM 35.1612 -45.8451 229° Southwest 468 539 38,000  Level FlightAware Transoceanic
10:53AM 35.0753 -45.9647 229° Southwest 468 539 38,000  Level FlightAware Transoceanic
10:54AM 34.9893 -46.0841 229° Southwest 468 539 38,000  Level FlightAware Transoceanic
10:55AM 34.9032 -46.2032 229° Southwest 468 539 38,000  Level FlightAware Transoceanic
10:56AM 34.8170 -46.3221 228° Southwest 468 539 38,000  Level FlightAware Transoceanic
10:57AM 34.7306 -46.4407 228° Southwest 468 539 38,000  Level FlightAware Transoceanic
10:58AM 34.6442 -46.5591 228° Southwest 468 539 38,000  Level FlightAware Transoceanic
10:59AM 34.5576 -46.6772 228° Southwest 468 539 38,000  Level FlightAware Transoceanic
10:59AM 34.5167 -46.7167 228° Southwest 469 540 38,000  Level New York Oceanic (ODAPS)
11:00AM 34.4709 -46.7951 228° Southwest 468 539 38,000  Level FlightAware Transoceanic
11:01AM 34.3841 -46.9128 228° Southwest 468 539 38,000  Level FlightAware Transoceanic
11:02AM 34.2972 -47.0302 228° Southwest 468 539 38,000  Level FlightAware Transoceanic
11:03AM 34.2102 -47.1473 228° Southwest 468 539 38,000  Level FlightAware Transoceanic
11:04AM 34.1231 -47.2642 228° Southwest 468 539 38,000  Level FlightAware Transoceanic
11:05AM 34.0032 -47.4117 228° Southwest 469 540 38,000  Level FlightAware Transoceanic
11:06AM 33.9172 -47.5267 228° Southwest 469 540 38,000  Level FlightAware Transoceanic
11:07AM 33.8311 -47.6415 228° Southwest 469 540 38,000  Level FlightAware Transoceanic
11:08AM 33.7450 -47.7560 228° Southwest 469 540 38,000  Level FlightAware Transoceanic
11:09AM 33.6587 -47.8704 228° Southwest 469 540 38,000  Level FlightAware Transoceanic
11:10AM 33.5723 -47.9845 228° Southwest 469 540 38,000  Level FlightAware Transoceanic
11:11AM 33.4858 -48.0983 228° Southwest 469 540 38,000  Level FlightAware Transoceanic
11:12AM 33.3992 -48.2120 228° Southwest 469 540 38,000  Level FlightAware Transoceanic
11:13AM 33.3125 -48.3254 228° Southwest 469 540 38,000  Level FlightAware Transoceanic
11:14AM 33.2257 -48.4385 227° Southwest 469 540 38,000  Level FlightAware Transoceanic
11:15AM 33.1388 -48.5515 227° Southwest 469 540 38,000  Level FlightAware Transoceanic
11:16AM 33.0518 -48.6642 227° Southwest 469 540 38,000  Level FlightAware Transoceanic
11:17AM 32.9647 -48.7768 227° Southwest 469 540 38,000  Level FlightAware Transoceanic
11:18AM 32.8775 -48.8891 227° Southwest 469 540 38,000  Level FlightAware Transoceanic
11:19AM 32.7902 -49.0011 227° Southwest 469 540 38,000  Level FlightAware Transoceanic
11:19AM 32.7333 -49.0833 227° Southwest 473 544 38,000  Level New York Oceanic (ODAPS)
11:20AM 32.7028 -49.1130 227° Southwest 469 540 38,000  Level FlightAware Transoceanic
11:21AM 32.6153 -49.2246 227° Southwest 469 540 38,000  Level FlightAware Transoceanic
11:22AM 32.5277 -49.3360 227° Southwest 469 540 38,000  Level FlightAware Transoceanic
11:23AM 32.4400 -49.4472 227° Southwest 469 540 38,000  Level FlightAware Transoceanic
11:24AM 32.3522 -49.5582 227° Southwest 469 540 38,000  Level FlightAware Transoceanic
11:25AM 32.2643 -49.6690 227° Southwest 469 540 38,000  Level FlightAware Transoceanic
11:26AM 32.1839 -49.7722 226° Southwest 473 544 38,000  Level FlightAware Transoceanic
11:27AM 32.0920 -49.8862 226° Southwest 473 544 38,000  Level FlightAware Transoceanic
11:28AM 32.0000 -50.0000 217° Southwest 473 544 38,000  Level FlightAware Transoceanic
11:28AM 32.0000 -50.0000 217° Southwest 463 533 38,000  Level New York Oceanic (ODAPS)
11:29AM 31.8982 -50.0914 217° Southwest 473 544 38,000  Level FlightAware Transoceanic
11:30AM 31.7964 -50.1826 217° Southwest 473 544 38,000  Level FlightAware Transoceanic
11:31AM 31.6945 -50.2736 217° Southwest 473 544 38,000  Level FlightAware Transoceanic
11:32AM 31.5925 -50.3644 217° Southwest 473 544 38,000  Level FlightAware Transoceanic
11:33AM 31.4904 -50.4550 217° Southwest 473 544 38,000  Level FlightAware Transoceanic
11:34AM 31.3776 -50.5549 217° Southwest 463 533 38,000  Level FlightAware Transoceanic
11:35AM 31.2736 -50.6467 217° Southwest 463 533 38,000  Level FlightAware Transoceanic
11:36AM 31.1695 -50.7383 217° Southwest 463 533 38,000  Level FlightAware Transoceanic
11:37AM 31.0655 -50.8296 217° Southwest 463 533 38,000  Level FlightAware Transoceanic
11:38AM 30.9613 -50.9208 217° Southwest 463 533 38,000  Level FlightAware Transoceanic
11:39AM 30.8571 -51.0117 217° Southwest 463 533 38,000  Level FlightAware Transoceanic
11:40AM 30.7528 -51.1025 217° Southwest 463 533 38,000  Level FlightAware Transoceanic
11:40AM 30.7500 -51.1000 217° Southwest 456 525 38,000  Level New York Oceanic (ODAPS)
11:41AM 30.6484 -51.1931 217° Southwest 463 533 38,000  Level FlightAware Transoceanic
11:42AM 30.5440 -51.2835 217° Southwest 463 533 38,000  Level FlightAware Transoceanic
11:43AM 30.4395 -51.3737 217° Southwest 463 533 38,000  Level FlightAware Transoceanic
11:44AM 30.3350 -51.4636 217° Southwest 463 533 38,000  Level FlightAware Transoceanic
11:45AM 30.2304 -51.5534 217° Southwest 463 533 38,000  Level FlightAware Transoceanic
11:46AM 30.1370 -51.6292 217° Southwest 456 525 38,000  Level FlightAware Transoceanic
11:47AM 30.0346 -51.7167 216° Southwest 456 525 38,000  Level FlightAware Transoceanic
11:48AM 29.9321 -51.8041 216° Southwest 456 525 38,000  Level FlightAware Transoceanic
11:49AM 29.8297 -51.8913 216° Southwest 456 525 38,000  Level FlightAware Transoceanic
11:50AM 29.7271 -51.9783 216° Southwest 456 525 38,000  Level FlightAware Transoceanic
11:51AM 29.6245 -52.0652 216° Southwest 456 525 38,000  Level FlightAware Transoceanic
11:52AM 29.5218 -52.1518 216° Southwest 456 525 38,000  Level FlightAware Transoceanic
11:53AM 29.4191 -52.2383 216° Southwest 456 525 38,000  Level FlightAware Transoceanic
11:54AM 29.3163 -52.3246 216° Southwest 456 525 38,000  Level FlightAware Transoceanic
11:55AM 29.2135 -52.4108 216° Southwest 456 525 38,000  Level FlightAware Transoceanic
11:56AM 29.1106 -52.4967 216° Southwest 456 525 38,000  Level FlightAware Transoceanic
11:57AM 29.0077 -52.5825 216° Southwest 456 525 38,000  Level FlightAware Transoceanic
11:58AM 28.9047 -52.6681 216° Southwest 456 525 38,000  Level FlightAware Transoceanic
11:59AM 28.8016 -52.7536 216° Southwest 456 525 38,000  Level FlightAware Transoceanic
12:00PM 28.6985 -52.8389 216° Southwest 456 525 38,000  Level FlightAware Transoceanic
12:00PM 28.6667 -52.8667 216° Southwest 452 520 38,000  Level New York Oceanic (ODAPS)
12:01PM 28.5954 -52.9240 216° Southwest 456 525 38,000  Level FlightAware Transoceanic
12:02PM 28.4921 -53.0089 216° Southwest 456 525 38,000  Level FlightAware Transoceanic
12:03PM 28.3889 -53.0937 216° Southwest 456 525 38,000  Level FlightAware Transoceanic
12:04PM 28.2856 -53.1783 216° Southwest 456 525 38,000  Level FlightAware Transoceanic
12:05PM 28.1822 -53.2628 216° Southwest 456 525 38,000  Level FlightAware Transoceanic
12:06PM 28.0542 -53.3682 216° Southwest 452 520 38,000  Level FlightAware Transoceanic
12:07PM 27.9520 -53.4512 216° Southwest 452 520 38,000  Level FlightAware Transoceanic
12:08PM 27.8496 -53.5341 216° Southwest 452 520 38,000  Level FlightAware Transoceanic
12:09PM 27.7473 -53.6168 216° Southwest 452 520 38,000  Level FlightAware Transoceanic
12:10PM 27.6449 -53.6994 216° Southwest 452 520 38,000  Level FlightAware Transoceanic
12:11PM 27.5424 -53.7818 215° Southwest 452 520 38,000  Level FlightAware Transoceanic
12:12PM 27.4399 -53.8641 215° Southwest 452 520 38,000  Level FlightAware Transoceanic
12:13PM 27.3374 -53.9462 215° Southwest 452 520 38,000  Level FlightAware Transoceanic
12:14PM 27.2348 -54.0281 215° Southwest 452 520 38,000  Level FlightAware Transoceanic
12:15PM 27.1321 -54.1099 215° Southwest 452 520 38,000  Level FlightAware Transoceanic
12:16PM 27.0294 -54.1916 215° Southwest 452 520 38,000  Level FlightAware Transoceanic
12:17PM 26.9267 -54.2731 215° Southwest 452 520 38,000  Level FlightAware Transoceanic
12:18PM 26.8239 -54.3544 215° Southwest 452 520 38,000  Level FlightAware Transoceanic
12:19PM 26.7211 -54.4356 215° Southwest 452 520 38,000  Level FlightAware Transoceanic
12:20PM 26.6182 -54.5167 215° Southwest 452 520 38,000  Level FlightAware Transoceanic
12:20PM 26.6000 -54.5333 215° Southwest 444 511 38,000  Level New York Oceanic (ODAPS)
12:21PM 26.5153 -54.5976 215° Southwest 452 520 38,000  Level FlightAware Transoceanic
12:22PM 26.4123 -54.6784 215° Southwest 452 520 38,000  Level FlightAware Transoceanic
12:23PM 26.3093 -54.7590 215° Southwest 452 520 38,000  Level FlightAware Transoceanic
12:24PM 26.2062 -54.8395 215° Southwest 452 520 38,000  Level FlightAware Transoceanic
12:25PM 26.1031 -54.9198 215° Southwest 452 520 38,000  Level FlightAware Transoceanic
12:26PM 26.0000 -55.0000 219° Southwest 452 520 38,000  Level FlightAware Transoceanic
12:27PM 25.9030 -55.0858 218° Southwest 444 511 38,000  Level FlightAware Transoceanic
12:28PM 25.8059 -55.1714 218° Southwest 444 511 38,000  Level FlightAware Transoceanic
12:28PM 26.0000 -55.0000 219° Southwest 444 511 38,000  Level New York Oceanic (ODAPS)
12:29PM 25.7088 -55.2569 218° Southwest 444 511 38,000  Level FlightAware Transoceanic
12:30PM 25.6116 -55.3422 218° Southwest 444 511 38,000  Level FlightAware Transoceanic
12:31PM 25.5144 -55.4274 218° Southwest 444 511 38,000  Level FlightAware Transoceanic
12:32PM 25.4172 -55.5125 218° Southwest 444 511 38,000  Level FlightAware Transoceanic
12:33PM 25.3199 -55.5974 218° Southwest 444 511 38,000  Level FlightAware Transoceanic
12:34PM 25.2351 -55.6713 218° Southwest 444 511 38,000  Level FlightAware Transoceanic
12:35PM 25.1392 -55.7546 218° Southwest 444 511 38,000  Level FlightAware Transoceanic
12:36PM 25.0433 -55.8378 218° Southwest 444 511 38,000  Level FlightAware Transoceanic
12:37PM 24.9474 -55.9208 218° Southwest 444 511 38,000  Level FlightAware Transoceanic
12:38PM 24.8514 -56.0038 218° Southwest 444 511 38,000  Level FlightAware Transoceanic
12:39PM 24.7554 -56.0866 218° Southwest 444 511 38,000  Level FlightAware Transoceanic
12:40PM 24.6594 -56.1692 218° Southwest 444 511 38,000  Level FlightAware Transoceanic
12:40PM 24.6167 -56.2000 218° Southwest 448 516 38,000  Level New York Oceanic (ODAPS)
12:41PM 24.5633 -56.2518 218° Southwest 444 511 38,000  Level FlightAware Transoceanic
12:42PM 24.4671 -56.3342 218° Southwest 444 511 38,000  Level FlightAware Transoceanic
12:43PM 24.3709 -56.4165 218° Southwest 444 511 38,000  Level FlightAware Transoceanic
12:44PM 24.2747 -56.4986 218° Southwest 444 511 38,000  Level FlightAware Transoceanic
12:45PM 24.1784 -56.5807 218° Southwest 444 511 38,000  Level FlightAware Transoceanic
12:46PM 24.0821 -56.6626 218° Southwest 444 511 38,000  Level FlightAware Transoceanic
12:47PM 24.0197 -56.7104 218° Southwest 448 516 38,000  Level FlightAware Transoceanic
12:48PM 23.9200 -56.7950 218° Southwest 448 516 38,000  Level FlightAware Transoceanic
12:49PM 23.8203 -56.8795 218° Southwest 448 516 38,000  Level FlightAware Transoceanic
12:50PM 23.7206 -56.9638 218° Southwest 448 516 38,000  Level FlightAware Transoceanic
12:51PM 23.6208 -57.0480 218° Southwest 448 516 38,000  Level FlightAware Transoceanic
12:52PM 23.5209 -57.1321 218° Southwest 448 516 38,000  Level FlightAware Transoceanic
12:53PM 23.4211 -57.2161 218° Southwest 448 516 38,000  Level FlightAware Transoceanic
12:54PM 23.3211 -57.2999 218° Southwest 448 516 38,000  Level FlightAware Transoceanic
12:55PM 23.2211 -57.3836 218° Southwest 448 516 38,000  Level FlightAware Transoceanic
12:56PM 23.1211 -57.4672 218° Southwest 448 516 38,000  Level FlightAware Transoceanic
12:57PM 23.0211 -57.5507 217° Southwest 448 516 38,000  Level FlightAware Transoceanic
12:58PM 22.9209 -57.6340 217° Southwest 448 516 38,000  Level FlightAware Transoceanic
12:59PM 22.8208 -57.7172 217° Southwest 448 516 38,000  Level FlightAware Transoceanic
01:00PM 22.7206 -57.8003 217° Southwest 448 516 38,000  Level FlightAware Transoceanic
01:01PM 22.6204 -57.8833 217° Southwest 448 516 38,000  Level FlightAware Transoceanic
01:01PM 22.6333 -57.8833 217° Southwest 446 513 38,000  Level New York Oceanic (ODAPS)
01:02PM 22.5201 -57.9661 217° Southwest 448 516 38,000  Level FlightAware Transoceanic
01:03PM 22.4198 -58.0488 217° Southwest 448 516 38,000  Level FlightAware Transoceanic
01:04PM 22.3194 -58.1314 217° Southwest 448 516 38,000  Level FlightAware Transoceanic
01:05PM 22.2190 -58.2139 217° Southwest 448 516 38,000  Level FlightAware Transoceanic
01:06PM 22.1185 -58.2963 217° Southwest 448 516 38,000  Level FlightAware Transoceanic
01:07PM 22.0280 -58.3786 217° Southwest 446 513 38,000  Level FlightAware Transoceanic
01:08PM 21.9270 -58.4608 217° Southwest 446 513 38,000  Level FlightAware Transoceanic
01:09PM 21.8259 -58.5428 217° Southwest 446 513 38,000  Level FlightAware Transoceanic
01:10PM 21.7248 -58.6247 217° Southwest 446 513 38,000  Level FlightAware Transoceanic
01:11PM 21.6237 -58.7065 217° Southwest 446 513 38,000  Level FlightAware Transoceanic
01:12PM 21.5225 -58.7882 217° Southwest 446 513 38,000  Level FlightAware Transoceanic
01:13PM 21.4212 -58.8697 217° Southwest 446 513 38,000  Level FlightAware Transoceanic
01:14PM 21.3200 -58.9512 217° Southwest 446 513 38,000  Level FlightAware Transoceanic
01:15PM 21.2187 -59.0325 217° Southwest 446 513 38,000  Level FlightAware Transoceanic
01:16PM 21.1173 -59.1137 217° Southwest 446 513 38,000  Level FlightAware Transoceanic
01:17PM 21.0159 -59.1948 217° Southwest 446 513 38,000  Level FlightAware Transoceanic
01:18PM 20.9145 -59.2758 217° Southwest 446 513 38,000  Level FlightAware Transoceanic
01:19PM 20.8130 -59.3567 217° Southwest 446 513 38,000  Level FlightAware Transoceanic
01:20PM 20.7115 -59.4375 217° Southwest 446 513 38,000  Level FlightAware Transoceanic
01:21PM 20.6100 -59.5182 217° Southwest 446 513 38,000  Level FlightAware Transoceanic
01:21PM 20.6167 -59.5167 216° Southwest 448 516 38,000  Level New York Oceanic (ODAPS)
01:22PM 20.5084 -59.5988 217° Southwest 446 513 38,000  Level FlightAware Transoceanic
01:23PM 20.4068 -59.6792 217° Southwest 446 513 38,000  Level FlightAware Transoceanic
01:24PM 20.3052 -59.7596 217° Southwest 446 513 38,000  Level FlightAware Transoceanic
01:25PM 20.2035 -59.8398 217° Southwest 446 513 38,000  Level FlightAware Transoceanic
01:26PM 20.1018 -59.9200 216° Southwest 446 513 38,000  Level FlightAware Transoceanic
01:27PM 20.0000 -60.0000 205° Southwest 448 516 38,000  Level FlightAware Transoceanic
01:27PM 20.0000 -60.0000 205° Southwest 429 494 38,000  Level New York Oceanic (ODAPS)
01:28PM 19.8752 -60.0632 205° Southwest 448 516 38,000  Level FlightAware Transoceanic
01:29PM 19.7503 -60.1263 205° Southwest 448 516 38,000  Level FlightAware Transoceanic
01:30PM 19.6254 -60.1894 205° Southwest 448 516 38,000  Level FlightAware Transoceanic
01:31PM 19.5005 -60.2523 205° Southwest 448 516 38,000  Level FlightAware Transoceanic
01:32PM 19.3756 -60.3151 205° Southwest 448 516 38,000  Level FlightAware Transoceanic
01:33PM 19.3690 -60.3184 205° Southwest 429 494 38,000  Level FlightAware Transoceanic
01:34PM 19.2638 -60.3712 205° Southwest 429 494 38,000  Level FlightAware Transoceanic
01:35PM 19.1586 -60.4240 205° Southwest 429 494 38,000  Level FlightAware Transoceanic
01:36PM 19.0533 -60.4767 205° Southwest 429 494 38,000  Level FlightAware Transoceanic
01:37PM 18.9480 -60.5293 205° Southwest 429 494 38,000  Level FlightAware Transoceanic
01:38PM 18.8428 -60.5819 205° Southwest 429 494 38,000  Level FlightAware Transoceanic
01:39PM 18.7375 -60.6344 205° Southwest 429 494 38,000  Level FlightAware Transoceanic
01:40PM 18.6322 -60.6868 205° Southwest 429 494 38,000 -720 Level FlightAware Transoceanic
01:40PM 18.5167 -60.7500 205° Southwest 447 514 37,000  Descending New York Oceanic (ODAPS)
01:41PM 18.5268 -60.7392 205° Southwest 429 494 38,000 -3,480 Climbing FlightAware Transoceanic
01:41PM 18.3833 -60.8167 204° Southwest 446 513 33,200  Descending New York Oceanic (ODAPS)
01:42PM 18.4215 -60.7915 205° Southwest 429 494 38,000 3,360 Climbing FlightAware Transoceanic
01:43PM 18.3161 -60.8437 205° Southwest 429 494 38,000  Level FlightAware Transoceanic
01:44PM 18.2108 -60.8959 205° Southwest 429 494 38,000  Level FlightAware Transoceanic
01:45PM 18.1054 -60.9480 205° Southwest 429 494 38,000 -540 Level FlightAware Transoceanic
01:46PM 17.8918 -61.1004 221° Southwest 447 514 37,000 -2,400 Descending FlightAware Transoceanic
01:47PM 17.7836 -61.2007 221° Southwest 446 513 33,200 -13,800 Descending FlightAware Transoceanic
01:47PM 17.8100 -61.1750 221° Southwest 415 478 21,600 -15,840 Descending FlightAware
01:47PM 17.7630 -61.2190 222° Southwest 409 471 20,800 -840 Descending FlightAware
01:48PM 17.7040 -61.2720 221° Southwest 408 470 20,500 -240 Descending FlightAware
01:49PM 17.6550 -61.3170 221° Southwest 408 470 20,500 -1,740 Level FlightAware
01:49PM 17.5960 -61.3710 221° Southwest 17,800 -2,280 Descending FlightAware
01:51PM 17.4540 -61.5010 221° Southwest 381 438 15,600 -1,500 Descending FlightAware
01:51PM 17.4130 -61.5390 221° Southwest 375 432 14,900 -1,020 Descending FlightAware
01:52PM 17.3520 -61.5940 221° Southwest 374 430 14,200 -480 Descending FlightAware
01:53PM 17.3070 -61.6350 221° Southwest 374 430 14,200  Level FlightAware
01:54PM 17.2630 -61.6750 221° Southwest 374 430 14,200 -1,680 Level FlightAware
01:55PM 17.1490 -61.7790 90° East 258 297 9,900 -1,740 Descending FlightAware
01:56PM 17.1167 -61.7667 90° East  Level FlightAware Approximate
01:56PM 17.1170 -61.8080 221° Southwest 258 297 9,800  Level FlightAware
01:57PM 17.1060 -61.8480 254° West 224 258 9,300 -1,680 Descending FlightAware
01:57PM 17.0940 -61.8790 248° West 224 258 8,300 -1,620 Descending FlightAware
01:58PM 17.0810 -61.9090 246° West 224 258 7,700 -1,080 Descending FlightAware
01:58PM 17.0770 -61.9250 255° West 224 258 7,500  Descending FlightAware
01:58PM 17.0780 -61.9360 275° West 221 254 7,700 -1,200 Climbing FlightAware
01:58PM 17.0830 -61.9520 288° West 222 255 7,000 -1,080 Descending FlightAware
01:59PM 17.0910 -61.9770 289° West 223 257 6,900 -240 Descending FlightAware
02:01PM 17.1367 -61.7927 75° East  Level Estimated
02:02PM 17.1367 -61.7927 109° East  Level Estimated
02:03PM 17.1367 -61.7927 109° East  Level Estimated
02:04PM 17.1367 -61.7927 109° East  Level Estimated
02:05PM 17.1367 -61.7927 109° East  Level Estimated
02:06PM 17.1367 -61.7927 109° East  Level Estimated
02:07PM 17.1367 -61.7927 109° East  Level Estimated
02:08PM 17.1367 -61.7927 109° East  Level Estimated
02:09PM 17.1367 -61.7927 109° East  Level Estimated
02:10PM 17.1367 -61.7927 109° East  Level Estimated
02:11PM 17.1367 -61.7927 109° East  Level Estimated